Terminal Aerodrome Forecast
Issued by NWS Nashville, TN

Home | Current Version | Previous Version | Text Only | Print | Product List | Glossary On
Versions: 1 2 3 4 5 6 7 8 9 10 11 12 13 14 15 16 17 18 19 20 21 22 23
000
FTUS44 KOHX 181700
TAFBNA
TAF
KBNA 181740Z 1818/1918 01004KT P6SM BKN010 OVC050
     FM190400 01003KT P6SM BKN025
     FM191300 03004KT P6SM BKN040=

USA.gov is the U.S. government's official web portal to all federal, state and local government web resources and services.